Terminal Aerodrome Forecast
Issued by NWS Tuscon, AZ

Home | Current Version | Previous Version | Text Only | Print | Product List | Glossary On
Versions: 1 2 3 4 5 6 7 8 9 10 11 12 13 14
476
FTUS45 KTWC 240520
TAFDUG
TAF
KDUG 240520Z 2406/2506 33008KT P6SM SCT140
     FM240900 05007KT P6SM SCT140 BKN250
     FM241800 09012G18KT P6SM SCT120 BKN250
     FM250300 12010KT P6SM SCT120 OVC250=

USA.gov is the U.S. government's official web portal to all federal, state and local government web resources and services.